ALK181 VCBI-VNKT
Flight info
| Callsign | ALK181 |
|---|---|
| Flight time | N/A |
| Altitude | 39000 |
| Route | SAGOR A465 VVZ J26 MALSU/N0437F380 J27 RRC/N0360F240 W106 GGC/N0363F250 W106 PPT/N0435F380 G336 BIPOB/N0434F390 DCT ROMEO ROMEO1G |
| Aircraft | A20N/M-SDE2E3FGHIRWXY/LB1 |
Departure
| Time | 2026-04-27 05:20 |
|---|---|
| Airport | Bandaranaike International Colombo Airport (VCBI) |
Arrival
| Time | N/A |
|---|---|
| Airport | Tribhuvan International Airport (VNKT) |
| Time | Latitude | Longitude | Altitude | Speed | Heading |
|---|---|---|---|---|---|
| 2026-04-27 05:07 | 7.17615 | 79.88567 | 30 ft | 0 kts | 217° |
| 2026-04-27 05:10 | 7.17623 | 79.88573 | 30 ft | 3 kts | 217° |
| 2026-04-27 05:10 | 7.17638 | 79.88585 | 30 ft | 3 kts | 217° |
| 2026-04-27 05:10 | 7.17653 | 79.88596 | 30 ft | 3 kts | 217° |
| 2026-04-27 05:10 | 7.17668 | 79.88608 | 30 ft | 3 kts | 217° |
| 2026-04-27 05:11 | 7.17682 | 79.88619 | 30 ft | 2 kts | 218° |
| 2026-04-27 05:11 | 7.17694 | 79.88633 | 30 ft | 3 kts | 256° |
| 2026-04-27 05:11 | 7.17693 | 79.88652 | 30 ft | 3 kts | 296° |
| 2026-04-27 05:11 | 7.17692 | 79.88656 | 30 ft | 0 kts | 305° |
| 2026-04-27 05:14 | 7.17693 | 79.88654 | 30 ft | 1 kts | 306° |
| 2026-04-27 05:14 | 7.17709 | 79.88634 | 30 ft | 9 kts | 308° |
| 2026-04-27 05:14 | 7.17761 | 79.88565 | 30 ft | 14 kts | 306° |
| 2026-04-27 05:14 | 7.17818 | 79.88490 | 30 ft | 13 kts | 307° |
| 2026-04-27 05:15 | 7.17886 | 79.88438 | 30 ft | 12 kts | 11° |
| 2026-04-27 05:15 | 7.17955 | 79.88479 | 30 ft | 12 kts | 37° |
| 2026-04-27 05:15 | 7.18032 | 79.88538 | 30 ft | 15 kts | 36° |
| 2026-04-27 05:15 | 7.18115 | 79.88597 | 30 ft | 14 kts | 39° |
| 2026-04-27 05:16 | 7.18192 | 79.88659 | 30 ft | 14 kts | 38° |
| 2026-04-27 05:16 | 7.18269 | 79.88719 | 30 ft | 14 kts | 38° |
| 2026-04-27 05:16 | 7.18344 | 79.88777 | 30 ft | 14 kts | 38° |
| 2026-04-27 05:16 | 7.18419 | 79.88833 | 30 ft | 13 kts | 37° |
| 2026-04-27 05:17 | 7.18506 | 79.88900 | 31 ft | 19 kts | 35° |
| 2026-04-27 05:17 | 7.18626 | 79.88991 | 31 ft | 24 kts | 39° |
| 2026-04-27 05:17 | 7.18747 | 79.89084 | 31 ft | 20 kts | 38° |
| 2026-04-27 05:17 | 7.18857 | 79.89168 | 31 ft | 19 kts | 38° |
| 2026-04-27 05:18 | 7.18963 | 79.89252 | 30 ft | 20 kts | 41° |
| 2026-04-27 05:18 | 7.19075 | 79.89335 | 30 ft | 20 kts | 37° |
| 2026-04-27 05:18 | 7.19178 | 79.89406 | 30 ft | 16 kts | 12° |
| 2026-04-27 05:18 | 7.19258 | 79.89350 | 30 ft | 15 kts | 309° |
| 2026-04-27 05:19 | 7.19289 | 79.89274 | 30 ft | 13 kts | 226° |
| 2026-04-27 05:19 | 7.19079 | 79.89111 | 31 ft | 69 kts | 217° |
| 2026-04-27 05:19 | 7.18531 | 79.88692 | 31 ft | 127 kts | 217° |
| 2026-04-27 05:19 | 7.17718 | 79.88074 | 181 ft | 155 kts | 217° |
| 2026-04-27 05:20 | 7.16836 | 79.87424 | 687 ft | 158 kts | 216° |
| 2026-04-27 05:20 | 7.15959 | 79.86751 | 1247 ft | 160 kts | 218° |
| 2026-04-27 05:20 | 7.15089 | 79.86033 | 1747 ft | 168 kts | 220° |
| 2026-04-27 05:20 | 7.14175 | 79.85127 | 2074 ft | 202 kts | 227° |
| 2026-04-27 05:21 | 7.13223 | 79.83959 | 2466 ft | 229 kts | 238° |
| 2026-04-27 05:21 | 7.12641 | 79.82382 | 2906 ft | 252 kts | 258° |
| 2026-04-27 05:21 | 7.12459 | 79.80587 | 3529 ft | 263 kts | 270° |
| 2026-04-27 05:21 | 7.12676 | 79.78747 | 4269 ft | 268 kts | 286° |
| 2026-04-27 05:22 | 7.13513 | 79.77065 | 5008 ft | 273 kts | 308° |
| 2026-04-27 05:22 | 7.14811 | 79.75663 | 5765 ft | 276 kts | 319° |
| 2026-04-27 05:22 | 7.16451 | 79.74671 | 6483 ft | 278 kts | 341° |
| 2026-04-27 05:22 | 7.18351 | 79.74340 | 7186 ft | 279 kts | 2° |
| 2026-04-27 05:23 | 7.20292 | 79.74528 | 7934 ft | 282 kts | 9° |
| 2026-04-27 05:23 | 7.22149 | 79.75154 | 8663 ft | 284 kts | 27° |
| 2026-04-27 05:23 | 7.23898 | 79.76088 | 9416 ft | 286 kts | 31° |
| 2026-04-27 05:23 | 7.25625 | 79.77107 | 10132 ft | 290 kts | 27° |
| 2026-04-27 05:24 | 7.27512 | 79.77972 | 10503 ft | 307 kts | 26° |
| 2026-04-27 05:24 | 7.29588 | 79.78699 | 10802 ft | 325 kts | 14° |
| 2026-04-27 05:24 | 7.31869 | 79.78986 | 11263 ft | 335 kts | 8° |
| 2026-04-27 05:24 | 7.34200 | 79.79255 | 11842 ft | 339 kts | 8° |
| 2026-04-27 05:25 | 7.36511 | 79.79764 | 12448 ft | 341 kts | 15° |
| 2026-04-27 05:25 | 7.38843 | 79.80280 | 13063 ft | 344 kts | 18° |
| 2026-04-27 05:25 | 7.41102 | 79.81094 | 13694 ft | 346 kts | 24° |
| 2026-04-27 05:25 | 7.43284 | 79.82139 | 14250 ft | 348 kts | 29° |
| 2026-04-27 05:26 | 7.45479 | 79.83118 | 14813 ft | 352 kts | 21° |
| 2026-04-27 05:26 | 7.47767 | 79.84107 | 15384 ft | 355 kts | 27° |
| 2026-04-27 05:26 | 7.49967 | 79.85254 | 15964 ft | 357 kts | 31° |
| 2026-04-27 05:26 | 7.52171 | 79.86427 | 16522 ft | 361 kts | 27° |
| 2026-04-27 05:27 | 7.54454 | 79.87504 | 17074 ft | 364 kts | 26° |
| 2026-04-27 05:27 | 7.56827 | 79.88446 | 17624 ft | 369 kts | 20° |
| 2026-04-27 05:27 | 7.59324 | 79.89097 | 18145 ft | 374 kts | 13° |
| 2026-04-27 05:27 | 7.61876 | 79.89495 | 18562 ft | 379 kts | 7° |
| 2026-04-27 05:28 | 7.64515 | 79.89665 | 18995 ft | 382 kts | 5° |
| 2026-04-27 05:28 | 7.67184 | 79.89771 | 19422 ft | 385 kts | 4° |
| 2026-04-27 05:28 | 7.69864 | 79.89880 | 19863 ft | 387 kts | 4° |
| 2026-04-27 05:28 | 7.72564 | 79.90016 | 20288 ft | 389 kts | 5° |
| 2026-04-27 05:29 | 7.75277 | 79.90185 | 20728 ft | 392 kts | 6° |
| 2026-04-27 05:29 | 7.78004 | 79.90380 | 21178 ft | 394 kts | 6° |
| 2026-04-27 05:29 | 7.80749 | 79.90592 | 21625 ft | 397 kts | 6° |
| 2026-04-27 05:29 | 7.83510 | 79.90812 | 22074 ft | 400 kts | 6° |